Hernani, Spain
Current Conditions -  °F | °C
As of 8:30 PM on Monday 20 Oct 2014 (Local Time) from LESO Reporting Station
Few Clouds Few Clouds  
Wind Chill: 68°   Ceiling: Unl
Heat Index: 68°   Visibility: 6mi
Dew Point: 64°   Wind: 7mph
Humidity: 88%   Direction: 220°SW
Pressure: 30.12"   Gusts: NA
Location:  43.27°N, 1.98°W
Report Text: LESO 201830Z 22006KT 190V270 9999 FEW011 20/18 Q1020
Loading
Personal Weather Stations






























Interactive Weather Map
Tropical Storm Tracking
New forecast layout! Learn more

10-Day Weather Forecast

Advertisements
Track Severe Weather on mobile